This is the latest recevied weather packets stored in our database for station/object OE3PDB-3. If no packets are shown the sender has not sent any weather packets the latest 10 day(s).
| Time | Temp. | Humidity | Pressure | Rain* | Wind** | Luminosity | Snow |
|---|---|---|---|---|---|---|---|
| 1777712449 | 21.11° C | 39% | 1024.2 hPa | 0 mm | - | - | - |
| 1777711849 | 21.67° C | 39% | 1024.3 hPa | 0 mm | - | - | - |
| 1777711249 | 22.22° C | 39% | 1024.5 hPa | 0 mm | - | - | - |
| 1777710649 | 22.22° C | 38% | 1024.5 hPa | 0 mm | - | - | - |
| 1777710049 | 22.78° C | 38% | 1024.6 hPa | 0 mm | - | - | - |
| 1777709449 | 23.33° C | 38% | 1024.6 hPa | 0 mm | - | - | - |
| 1777708849 | 23.89° C | 37% | 1024.6 hPa | 0 mm | - | - | - |
| 1777708249 | 24.44° C | 37% | 1024.6 hPa | 0 mm | - | - | - |
| 1777707649 | 23.89° C | 38% | 1024.6 hPa | 0 mm | - | - | - |
| 1777707049 | 23.33° C | 40% | 1024.6 hPa | 0 mm | - | - | - |
| 1777706449 | 22.78° C | 41% | 1024.6 hPa | 0 mm | - | - | - |
| 1777705849 | 20.56° C | 46% | 1024.6 hPa | 0 mm | - | - | - |
| 1777705249 | 16.67° C | 54% | 1024.6 hPa | 0 mm | - | - | - |
| 1777704649 | 12.78° C | 57% | 1024.6 hPa | 0 mm | - | - | - |
| 1777704049 | 12.78° C | 56% | 1024.6 hPa | 0 mm | - | - | - |
| 1777703449 | 13.33° C | 55% | 1024.6 hPa | 0 mm | - | - | - |
| 1777702849 | 13.33° C | 56% | 1024.6 hPa | 0 mm | - | - | - |
| 1777702249 | 12.22° C | 58% | 1024.6 hPa | 0 mm | - | - | - |
| 1777701649 | 12.22° C | 58% | 1024.6 hPa | 0 mm | - | - | - |
| 1777701049 | 12.22° C | 59% | 1024.6 hPa | 0 mm | - | - | - |
| 1777700449 | 11.67° C | 58% | 1024.6 hPa | 0 mm | - | - | - |
| 1777699849 | 12.22° C | 59% | 1024.6 hPa | 0 mm | - | - | - |
| 1777699249 | 11.67° C | 61% | 1024.6 hPa | 0 mm | - | - | - |
| 1777698649 | 9.44° C | 64% | 1024.7 hPa | 0 mm | - | - | - |
| 1777698049 | 8.89° C | 64% | 1024.6 hPa | 0 mm | - | - | - |
* Rain latest hour (hover to see other rain measurements)
** Current wind speed in m/s (hover to see current wind gust speed)